sensor_id;sensor_type;location;lat;lon;timestamp;P1;durP1;ratioP1;P2;durP2;ratioP2
79122;SDS011;68526;44.600;26.032;2024-03-23T00:53:21;24.40;;;16.75;;
79122;SDS011;68526;44.600;26.032;2024-03-23T00:54:10;26.98;;;16.85;;
79122;SDS011;68526;44.600;26.032;2024-03-23T00:54:26;25.38;;;16.63;;
79122;SDS011;68526;44.600;26.032;2024-03-23T00:54:43;25.08;;;16.63;;
79122;SDS011;68526;44.600;26.032;2024-03-23T00:54:59;26.08;;;17.15;;
79122;SDS011;68526;44.600;26.032;2024-03-23T00:55:15;24.75;;;16.33;;
79122;SDS011;68526;44.600;26.032;2024-03-23T00:55:31;24.40;;;16.17;;
79122;SDS011;68526;44.600;26.032;2024-03-23T00:55:47;26.40;;;16.65;;
79122;SDS011;68526;44.600;26.032;2024-03-23T00:56:03;26.85;;;16.13;;
79122;SDS011;68526;44.600;26.032;2024-03-23T00:56:20;26.13;;;16.58;;
79122;SDS011;68526;44.600;26.032;2024-03-23T00:56:36;25.65;;;16.50;;
79122;SDS011;68526;44.600;26.032;2024-03-23T00:56:52;25.08;;;16.15;;
79122;SDS011;68526;44.600;26.032;2024-03-23T00:57:08;24.52;;;16.08;;
79122;SDS011;68526;44.600;26.032;2024-03-23T00:57:25;24.87;;;16.13;;
79122;SDS011;68526;44.600;26.032;2024-03-23T00:57:41;23.70;;;15.90;;
79122;SDS011;68526;44.600;26.032;2024-03-23T00:57:58;25.52;;;15.88;;
79122;SDS011;68526;44.600;26.032;2024-03-23T00:58:14;26.40;;;15.93;;
79122;SDS011;68526;44.600;26.032;2024-03-23T00:58:30;25.35;;;16.45;;
79122;SDS011;68526;44.600;26.032;2024-03-23T00:58:46;23.90;;;16.38;;
79122;SDS011;68526;44.600;26.032;2024-03-23T00:59:02;23.80;;;16.43;;
79122;SDS011;68526;44.600;26.032;2024-03-23T00:59:18;23.65;;;16.02;;
79122;SDS011;68526;44.600;26.032;2024-03-23T00:59:34;23.88;;;15.70;;
79122;SDS011;68526;44.600;26.032;2024-03-23T00:59:51;24.92;;;16.10;;
79122;SDS011;68526;44.600;26.032;2024-03-23T01:00:07;25.15;;;15.70;;
79122;SDS011;68526;44.600;26.032;2024-03-23T01:00:25;25.52;;;15.77;;
79122;SDS011;68526;44.600;26.032;2024-03-23T01:00:41;24.17;;;15.80;;
79122;SDS011;68526;44.600;26.032;2024-03-23T01:00:57;25.15;;;16.30;;
79122;SDS011;68526;44.600;26.032;2024-03-23T01:01:13;25.15;;;16.33;;
79122;SDS011;68526;44.600;26.032;2024-03-23T01:01:29;25.38;;;16.23;;
79122;SDS011;68526;44.600;26.032;2024-03-23T01:01:45;24.85;;;15.80;;
79122;SDS011;68526;44.600;26.032;2024-03-23T01:02:03;23.48;;;15.10;;
79122;SDS011;68526;44.600;26.032;2024-03-23T01:02:19;25.25;;;15.77;;
79122;SDS011;68526;44.600;26.032;2024-03-23T01:02:35;26.30;;;16.38;;
79122;SDS011;68526;44.600;26.032;2024-03-23T01:02:51;23.77;;;15.48;;
79122;SDS011;68526;44.600;26.032;2024-03-23T01:03:07;25.15;;;15.45;;
79122;SDS011;68526;44.600;26.032;2024-03-23T01:03:24;25.50;;;15.85;;
79122;SDS011;68526;44.600;26.032;2024-03-23T01:03:40;24.15;;;15.82;;
79122;SDS011;68526;44.600;26.032;2024-03-23T01:03:56;23.63;;;16.17;;
79122;SDS011;68526;44.600;26.032;2024-03-23T01:04:12;23.67;;;16.08;;
79122;SDS011;68526;44.600;26.032;2024-03-23T01:04:28;24.23;;;15.75;;
79122;SDS011;68526;44.600;26.032;2024-03-23T01:04:44;23.35;;;15.38;;
79122;SDS011;68526;44.600;26.032;2024-03-23T01:05:00;23.33;;;15.85;;
79122;SDS011;68526;44.600;26.032;2024-03-23T01:05:16;25.20;;;15.98;;
79122;SDS011;68526;44.600;26.032;2024-03-23T01:05:33;26.05;;;16.38;;
79122;SDS011;68526;44.600;26.032;2024-03-23T01:05:49;24.25;;;16.13;;
79122;SDS011;68526;44.600;26.032;2024-03-23T01:06:05;23.67;;;15.45;;
79122;SDS011;68526;44.600;26.032;2024-03-23T01:06:21;24.50;;;15.60;;
79122;SDS011;68526;44.600;26.032;2024-03-23T01:06:38;25.35;;;16.08;;
79122;SDS011;68526;44.600;26.032;2024-03-23T01:06:54;25.20;;;16.10;;
79122;SDS011;68526;44.600;26.032;2024-03-23T01:07:10;23.33;;;15.73;;
79122;SDS011;68526;44.600;26.032;2024-03-23T01:07:26;22.33;;;15.30;;
79122;SDS011;68526;44.600;26.032;2024-03-23T01:07:43;23.00;;;14.85;;
79122;SDS011;68526;44.600;26.032;2024-03-23T01:07:59;23.80;;;15.40;;
79122;SDS011;68526;44.600;26.032;2024-03-23T01:08:15;26.58;;;15.65;;
79122;SDS011;68526;44.600;26.032;2024-03-23T01:08:32;24.48;;;14.88;;
79122;SDS011;68526;44.600;26.032;2024-03-23T01:08:48;22.58;;;15.38;;
79122;SDS011;68526;44.600;26.032;2024-03-23T01:09:05;23.95;;;15.75;;
79122;SDS011;68526;44.600;26.032;2024-03-23T01:09:21;23.27;;;15.60;;
79122;SDS011;68526;44.600;26.032;2024-03-23T01:09:38;24.00;;;15.23;;
79122;SDS011;68526;44.600;26.032;2024-03-23T01:09:54;22.50;;;14.75;;
79122;SDS011;68526;44.600;26.032;2024-03-23T01:10:10;21.33;;;14.85;;
79122;SDS011;68526;44.600;26.032;2024-03-23T01:10:26;22.65;;;15.02;;
79122;SDS011;68526;44.600;26.032;2024-03-23T01:10:42;22.52;;;14.57;;
79122;SDS011;68526;44.600;26.032;2024-03-23T01:10:58;23.00;;;14.50;;
79122;SDS011;68526;44.600;26.032;2024-03-23T01:11:15;24.67;;;15.02;;
79122;SDS011;68526;44.600;26.032;2024-03-23T01:11:31;23.80;;;14.90;;
79122;SDS011;68526;44.600;26.032;2024-03-23T01:11:47;22.58;;;14.95;;
79122;SDS011;68526;44.600;26.032;2024-03-23T01:12:04;23.58;;;15.35;;
79122;SDS011;68526;44.600;26.032;2024-03-23T01:12:21;22.75;;;15.10;;
79122;SDS011;68526;44.600;26.032;2024-03-23T01:12:37;22.85;;;15.07;;
79122;SDS011;68526;44.600;26.032;2024-03-23T01:12:53;24.63;;;15.48;;
79122;SDS011;68526;44.600;26.032;2024-03-23T01:13:09;25.98;;;16.10;;
79122;SDS011;68526;44.600;26.032;2024-03-23T01:13:25;24.43;;;15.70;;
79122;SDS011;68526;44.600;26.032;2024-03-23T01:13:42;22.73;;;14.90;;
79122;SDS011;68526;44.600;26.032;2024-03-23T01:13:58;23.20;;;14.38;;
79122;SDS011;68526;44.600;26.032;2024-03-23T01:14:14;23.33;;;14.50;;
79122;SDS011;68526;44.600;26.032;2024-03-23T01:14:30;24.33;;;14.73;;
79122;SDS011;68526;44.600;26.032;2024-03-23T01:14:46;24.52;;;14.93;;
79122;SDS011;68526;44.600;26.032;2024-03-23T01:15:02;23.63;;;15.10;;
79122;SDS011;68526;44.600;26.032;2024-03-23T01:15:18;23.67;;;15.23;;
79122;SDS011;68526;44.600;26.032;2024-03-23T01:15:34;24.40;;;15.38;;
79122;SDS011;68526;44.600;26.032;2024-03-23T01:15:53;25.58;;;15.50;;
79122;SDS011;68526;44.600;26.032;2024-03-23T01:16:09;24.73;;;15.20;;
79122;SDS011;68526;44.600;26.032;2024-03-23T01:16:25;23.73;;;15.15;;
79122;SDS011;68526;44.600;26.032;2024-03-23T01:16:41;22.70;;;15.30;;
79122;SDS011;68526;44.600;26.032;2024-03-23T01:16:57;21.67;;;14.90;;
79122;SDS011;68526;44.600;26.032;2024-03-23T01:17:13;21.52;;;14.77;;
79122;SDS011;68526;44.600;26.032;2024-03-23T01:17:29;21.85;;;15.65;;
79122;SDS011;68526;44.600;26.032;2024-03-23T01:17:46;23.23;;;15.63;;
79122;SDS011;68526;44.600;26.032;2024-03-23T01:18:02;23.55;;;15.43;;
79122;SDS011;68526;44.600;26.032;2024-03-23T01:18:18;22.90;;;15.48;;
79122;SDS011;68526;44.600;26.032;2024-03-23T01:18:34;25.27;;;15.60;;
79122;SDS011;68526;44.600;26.032;2024-03-23T01:18:50;25.30;;;15.40;;
79122;SDS011;68526;44.600;26.032;2024-03-23T01:19:06;24.08;;;15.38;;
79122;SDS011;68526;44.600;26.032;2024-03-23T01:19:23;24.10;;;15.15;;
79122;SDS011;68526;44.600;26.032;2024-03-23T01:19:40;22.80;;;14.75;;
79122;SDS011;68526;44.600;26.032;2024-03-23T01:19:56;23.38;;;15.20;;
79122;SDS011;68526;44.600;26.032;2024-03-23T01:20:12;22.58;;;14.77;;
79122;SDS011;68526;44.600;26.032;2024-03-23T01:20:29;23.48;;;15.07;;
79122;SDS011;68526;44.600;26.032;2024-03-23T01:20:45;23.95;;;16.10;;
79122;SDS011;68526;44.600;26.032;2024-03-23T01:21:01;24.23;;;16.23;;
79122;SDS011;68526;44.600;26.032;2024-03-23T01:21:18;23.10;;;15.32;;
79122;SDS011;68526;44.600;26.032;2024-03-23T01:21:34;23.23;;;14.73;;
79122;SDS011;68526;44.600;26.032;2024-03-23T01:21:50;24.50;;;15.43;;
79122;SDS011;68526;44.600;26.032;2024-03-23T01:22:06;24.65;;;15.82;;
79122;SDS011;68526;44.600;26.032;2024-03-23T01:22:22;23.35;;;15.57;;
79122;SDS011;68526;44.600;26.032;2024-03-23T01:22:40;22.17;;;14.80;;
79122;SDS011;68526;44.600;26.032;2024-03-23T01:22:57;24.10;;;14.65;;
79122;SDS011;68526;44.600;26.032;2024-03-23T01:23:13;25.33;;;15.25;;
79122;SDS011;68526;44.600;26.032;2024-03-23T01:23:29;25.02;;;15.32;;
79122;SDS011;68526;44.600;26.032;2024-03-23T01:23:45;24.70;;;15.38;;
79122;SDS011;68526;44.600;26.032;2024-03-23T01:24:02;26.40;;;15.82;;
79122;SDS011;68526;44.600;26.032;2024-03-23T01:24:18;26.47;;;15.13;;
79122;SDS011;68526;44.600;26.032;2024-03-23T01:24:34;23.58;;;14.73;;
79122;SDS011;68526;44.600;26.032;2024-03-23T01:24:50;21.23;;;14.90;;
79122;SDS011;68526;44.600;26.032;2024-03-23T01:25:06;21.00;;;14.77;;
79122;SDS011;68526;44.600;26.032;2024-03-23T01:25:22;22.60;;;14.95;;
79122;SDS011;68526;44.600;26.032;2024-03-23T01:25:38;23.67;;;15.30;;
79122;SDS011;68526;44.600;26.032;2024-03-23T01:25:55;22.67;;;15.00;;
79122;SDS011;68526;44.600;26.032;2024-03-23T01:26:12;23.23;;;15.13;;
79122;SDS011;68526;44.600;26.032;2024-03-23T01:26:28;24.08;;;15.57;;
79122;SDS011;68526;44.600;26.032;2024-03-23T01:26:44;24.00;;;15.55;;
79122;SDS011;68526;44.600;26.032;2024-03-23T01:27:01;22.52;;;14.93;;
79122;SDS011;68526;44.600;26.032;2024-03-23T01:27:17;22.77;;;15.05;;
79122;SDS011;68526;44.600;26.032;2024-03-23T01:27:33;24.30;;;15.32;;
79122;SDS011;68526;44.600;26.032;2024-03-23T01:27:49;22.90;;;15.07;;
79122;SDS011;68526;44.600;26.032;2024-03-23T01:28:06;23.25;;;14.98;;
79122;SDS011;68526;44.600;26.032;2024-03-23T01:28:22;24.67;;;14.88;;
79122;SDS011;68526;44.600;26.032;2024-03-23T01:28:38;25.10;;;15.27;;
79122;SDS011;68526;44.600;26.032;2024-03-23T01:28:55;22.95;;;15.63;;
79122;SDS011;68526;44.600;26.032;2024-03-23T01:29:11;22.13;;;15.25;;
79122;SDS011;68526;44.600;26.032;2024-03-23T01:29:28;23.58;;;14.70;;
79122;SDS011;68526;44.600;26.032;2024-03-23T01:29:44;23.98;;;14.63;;
79122;SDS011;68526;44.600;26.032;2024-03-23T01:30:00;23.30;;;14.95;;
79122;SDS011;68526;44.600;26.032;2024-03-23T01:30:16;24.08;;;15.93;;
79122;SDS011;68526;44.600;26.032;2024-03-23T01:30:32;24.73;;;16.88;;
79122;SDS011;68526;44.600;26.032;2024-03-23T01:30:49;23.30;;;15.55;;
79122;SDS011;68526;44.600;26.032;2024-03-23T01:31:05;22.33;;;14.52;;
79122;SDS011;68526;44.600;26.032;2024-03-23T01:31:21;22.58;;;14.45;;
79122;SDS011;68526;44.600;26.032;2024-03-23T01:31:37;23.90;;;14.60;;
79122;SDS011;68526;44.600;26.032;2024-03-23T01:31:53;24.00;;;14.90;;
79122;SDS011;68526;44.600;26.032;2024-03-23T01:32:09;23.05;;;14.90;;
79122;SDS011;68526;44.600;26.032;2024-03-23T01:32:26;23.98;;;14.43;;
79122;SDS011;68526;44.600;26.032;2024-03-23T01:32:42;22.85;;;13.90;;
79122;SDS011;68526;44.600;26.032;2024-03-23T01:32:59;21.15;;;13.73;;
79122;SDS011;68526;44.600;26.032;2024-03-23T01:33:15;22.65;;;14.15;;
79122;SDS011;68526;44.600;26.032;2024-03-23T01:33:31;22.38;;;14.52;;
79122;SDS011;68526;44.600;26.032;2024-03-23T01:33:47;24.90;;;15.20;;
79122;SDS011;68526;44.600;26.032;2024-03-23T01:34:03;26.23;;;15.40;;
79122;SDS011;68526;44.600;26.032;2024-03-23T01:34:19;22.75;;;14.27;;
79122;SDS011;68526;44.600;26.032;2024-03-23T01:34:36;21.45;;;14.13;;
79122;SDS011;68526;44.600;26.032;2024-03-23T01:34:52;21.40;;;14.45;;
79122;SDS011;68526;44.600;26.032;2024-03-23T01:35:08;23.40;;;14.65;;
79122;SDS011;68526;44.600;26.032;2024-03-23T01:35:24;22.50;;;14.43;;
79122;SDS011;68526;44.600;26.032;2024-03-23T01:35:41;20.77;;;14.17;;
79122;SDS011;68526;44.600;26.032;2024-03-23T01:35:57;22.43;;;14.37;;
79122;SDS011;68526;44.600;26.032;2024-03-23T01:36:13;22.30;;;14.43;;
79122;SDS011;68526;44.600;26.032;2024-03-23T01:36:29;21.83;;;14.65;;
79122;SDS011;68526;44.600;26.032;2024-03-23T01:36:45;22.33;;;14.45;;
79122;SDS011;68526;44.600;26.032;2024-03-23T01:37:02;23.77;;;14.43;;
79122;SDS011;68526;44.600;26.032;2024-03-23T01:37:18;23.45;;;14.93;;
79122;SDS011;68526;44.600;26.032;2024-03-23T01:37:34;24.33;;;14.95;;
79122;SDS011;68526;44.600;26.032;2024-03-23T01:37:50;22.70;;;14.73;;
79122;SDS011;68526;44.600;26.032;2024-03-23T01:38:08;21.60;;;14.77;;
79122;SDS011;68526;44.600;26.032;2024-03-23T01:38:24;23.33;;;14.90;;
79122;SDS011;68526;44.600;26.032;2024-03-23T01:38:40;21.63;;;14.50;;
79122;SDS011;68526;44.600;26.032;2024-03-23T01:38:57;20.98;;;14.57;;
79122;SDS011;68526;44.600;26.032;2024-03-23T01:39:13;21.53;;;14.17;;
79122;SDS011;68526;44.600;26.032;2024-03-23T01:39:29;21.35;;;13.95;;
79122;SDS011;68526;44.600;26.032;2024-03-23T01:39:46;21.13;;;14.07;;
79122;SDS011;68526;44.600;26.032;2024-03-23T01:40:02;21.92;;;14.18;;
79122;SDS011;68526;44.600;26.032;2024-03-23T01:40:19;21.80;;;14.32;;
79122;SDS011;68526;44.600;26.032;2024-03-23T01:40:35;22.80;;;14.70;;
79122;SDS011;68526;44.600;26.032;2024-03-23T01:40:56;21.45;;;14.55;;
79122;SDS011;68526;44.600;26.032;2024-03-23T01:41:12;20.13;;;14.07;;
79122;SDS011;68526;44.600;26.032;2024-03-23T01:41:28;21.25;;;14.50;;
79122;SDS011;68526;44.600;26.032;2024-03-23T01:41:45;21.63;;;14.68;;
79122;SDS011;68526;44.600;26.032;2024-03-23T01:42:02;22.03;;;14.13;;
79122;SDS011;68526;44.600;26.032;2024-03-23T01:42:18;22.60;;;14.20;;
79122;SDS011;68526;44.600;26.032;2024-03-23T01:42:35;21.17;;;13.77;;
79122;SDS011;68526;44.600;26.032;2024-03-23T01:42:57;20.88;;;13.95;;
79122;SDS011;68526;44.600;26.032;2024-03-23T01:43:14;20.42;;;14.60;;
79122;SDS011;68526;44.600;26.032;2024-03-23T01:43:30;20.33;;;14.30;;
79122;SDS011;68526;44.600;26.032;2024-03-23T01:43:46;20.05;;;13.80;;
79122;SDS011;68526;44.600;26.032;2024-03-23T01:44:04;20.40;;;13.95;;
79122;SDS011;68526;44.600;26.032;2024-03-23T01:44:21;22.60;;;15.05;;
79122;SDS011;68526;44.600;26.032;2024-03-23T01:44:37;22.33;;;14.68;;
79122;SDS011;68526;44.600;26.032;2024-03-23T01:44:53;20.75;;;13.82;;
79122;SDS011;68526;44.600;26.032;2024-03-23T01:45:10;20.92;;;13.93;;
79122;SDS011;68526;44.600;26.032;2024-03-23T01:45:26;21.40;;;14.45;;
79122;SDS011;68526;44.600;26.032;2024-03-23T01:45:43;22.48;;;14.70;;
79122;SDS011;68526;44.600;26.032;2024-03-23T01:45:59;22.92;;;14.27;;
79122;SDS011;68526;44.600;26.032;2024-03-23T01:46:16;21.33;;;13.45;;
79122;SDS011;68526;44.600;26.032;2024-03-23T01:46:32;19.92;;;13.50;;
79122;SDS011;68526;44.600;26.032;2024-03-23T01:46:48;21.35;;;14.13;;
79122;SDS011;68526;44.600;26.032;2024-03-23T01:47:05;20.95;;;14.00;;
79122;SDS011;68526;44.600;26.032;2024-03-23T01:47:22;19.90;;;13.82;;
79122;SDS011;68526;44.600;26.032;2024-03-23T01:47:38;21.52;;;14.30;;
79122;SDS011;68526;44.600;26.032;2024-03-23T01:47:54;22.33;;;14.15;;
79122;SDS011;68526;44.600;26.032;2024-03-23T01:48:10;22.20;;;13.67;;
79122;SDS011;68526;44.600;26.032;2024-03-23T01:48:27;21.35;;;13.32;;
79122;SDS011;68526;44.600;26.032;2024-03-23T01:48:43;20.88;;;13.57;;
79122;SDS011;68526;44.600;26.032;2024-03-23T01:49:00;20.90;;;13.65;;
79122;SDS011;68526;44.600;26.032;2024-03-23T01:49:17;23.80;;;14.25;;
79122;SDS011;68526;44.600;26.032;2024-03-23T01:49:34;22.58;;;14.20;;
79122;SDS011;68526;44.600;26.032;2024-03-23T01:49:50;20.40;;;13.65;;
79122;SDS011;68526;44.600;26.032;2024-03-23T01:50:07;21.27;;;13.93;;
79122;SDS011;68526;44.600;26.032;2024-03-23T01:50:26;22.88;;;14.10;;
79122;SDS011;68526;44.600;26.032;2024-03-23T01:50:42;22.50;;;13.80;;
79122;SDS011;68526;44.600;26.032;2024-03-23T01:50:59;20.90;;;13.43;;
79122;SDS011;68526;44.600;26.032;2024-03-23T01:51:15;22.02;;;13.98;;
79122;SDS011;68526;44.600;26.032;2024-03-23T01:51:31;23.20;;;14.00;;
79122;SDS011;68526;44.600;26.032;2024-03-23T01:51:50;21.58;;;13.73;;
79122;SDS011;68526;44.600;26.032;2024-03-23T01:52:06;21.45;;;13.77;;
79122;SDS011;68526;44.600;26.032;2024-03-23T01:52:22;20.63;;;13.98;;
79122;SDS011;68526;44.600;26.032;2024-03-23T01:52:38;22.05;;;14.23;;
79122;SDS011;68526;44.600;26.032;2024-03-23T01:52:54;22.17;;;13.70;;
79122;SDS011;68526;44.600;26.032;2024-03-23T01:53:12;22.58;;;13.85;;
79122;SDS011;68526;44.600;26.032;2024-03-23T01:53:32;23.63;;;14.07;;
79122;SDS011;68526;44.600;26.032;2024-03-23T01:53:48;21.65;;;13.70;;
79122;SDS011;68526;44.600;26.032;2024-03-23T01:54:05;19.83;;;13.82;;
79122;SDS011;68526;44.600;26.032;2024-03-23T01:54:22;20.33;;;13.98;;
79122;SDS011;68526;44.600;26.032;2024-03-23T01:54:39;22.52;;;13.52;;
79122;SDS011;68526;44.600;26.032;2024-03-23T01:54:56;21.42;;;13.57;;
79122;SDS011;68526;44.600;26.032;2024-03-23T01:55:12;20.98;;;13.73;;
79122;SDS011;68526;44.600;26.032;2024-03-23T01:55:28;21.52;;;13.55;;
79122;SDS011;68526;44.600;26.032;2024-03-23T01:55:45;21.33;;;13.50;;
79122;SDS011;68526;44.600;26.032;2024-03-23T01:56:02;21.17;;;13.82;;
79122;SDS011;68526;44.600;26.032;2024-03-23T01:56:18;20.67;;;13.55;;
79122;SDS011;68526;44.600;26.032;2024-03-23T01:56:34;20.95;;;13.73;;
79122;SDS011;68526;44.600;26.032;2024-03-23T01:56:50;21.73;;;13.90;;
79122;SDS011;68526;44.600;26.032;2024-03-23T01:57:07;21.83;;;13.63;;
79122;SDS011;68526;44.600;26.032;2024-03-23T01:57:23;20.13;;;13.55;;
79122;SDS011;68526;44.600;26.032;2024-03-23T01:57:39;18.83;;;12.85;;
79122;SDS011;68526;44.600;26.032;2024-03-23T01:57:56;19.42;;;12.80;;
79122;SDS011;68526;44.600;26.032;2024-03-23T01:58:12;20.70;;;13.13;;
79122;SDS011;68526;44.600;26.032;2024-03-23T01:58:28;23.00;;;13.50;;
79122;SDS011;68526;44.600;26.032;2024-03-23T01:58:46;21.88;;;13.27;;
79122;SDS011;68526;44.600;26.032;2024-03-23T01:59:02;20.73;;;12.90;;
79122;SDS011;68526;44.600;26.032;2024-03-23T01:59:18;20.83;;;13.02;;
79122;SDS011;68526;44.600;26.032;2024-03-23T01:59:35;21.52;;;13.38;;
79122;SDS011;68526;44.600;26.032;2024-03-23T01:59:51;21.98;;;13.63;;
79122;SDS011;68526;44.600;26.032;2024-03-23T02:00:08;21.60;;;13.25;;
79122;SDS011;68526;44.600;26.032;2024-03-23T02:00:27;22.98;;;12.63;;
79122;SDS011;68526;44.600;26.032;2024-03-23T02:00:43;21.30;;;12.68;;
79122;SDS011;68526;44.600;26.032;2024-03-23T02:00:59;19.52;;;12.75;;
79122;SDS011;68526;44.600;26.032;2024-03-23T02:01:15;19.75;;;12.88;;
79122;SDS011;68526;44.600;26.032;2024-03-23T02:01:31;20.92;;;13.65;;
79122;SDS011;68526;44.600;26.032;2024-03-23T02:01:48;20.33;;;13.77;;
79122;SDS011;68526;44.600;26.032;2024-03-23T02:02:04;19.30;;;13.20;;
79122;SDS011;68526;44.600;26.032;2024-03-23T02:02:21;20.23;;;13.05;;
79122;SDS011;68526;44.600;26.032;2024-03-23T02:02:40;20.60;;;13.10;;
79122;SDS011;68526;44.600;26.032;2024-03-23T02:02:58;20.05;;;13.20;;
79122;SDS011;68526;44.600;26.032;2024-03-23T02:03:23;19.40;;;13.05;;
79122;SDS011;68526;44.600;26.032;2024-03-23T02:03:39;18.38;;;12.25;;
79122;SDS011;68526;44.600;26.032;2024-03-23T02:03:56;20.50;;;13.18;;
79122;SDS011;68526;44.600;26.032;2024-03-23T02:04:12;21.27;;;13.48;;
79122;SDS011;68526;44.600;26.032;2024-03-23T02:04:28;21.38;;;13.10;;
79122;SDS011;68526;44.600;26.032;2024-03-23T02:04:44;19.15;;;12.45;;
79122;SDS011;68526;44.600;26.032;2024-03-23T02:05:01;20.70;;;12.98;;
79122;SDS011;68526;44.600;26.032;2024-03-23T02:05:17;22.33;;;13.93;;
79122;SDS011;68526;44.600;26.032;2024-03-23T02:05:33;21.83;;;14.02;;
79122;SDS011;68526;44.600;26.032;2024-03-23T02:05:49;20.52;;;13.18;;
79122;SDS011;68526;44.600;26.032;2024-03-23T02:06:06;20.55;;;13.13;;
79122;SDS011;68526;44.600;26.032;2024-03-23T02:06:24;20.92;;;13.77;;
79122;SDS011;68526;44.600;26.032;2024-03-23T02:06:41;20.05;;;13.40;;
79122;SDS011;68526;44.600;26.032;2024-03-23T02:06:57;21.50;;;13.20;;
79122;SDS011;68526;44.600;26.032;2024-03-23T02:07:13;21.70;;;13.32;;
79122;SDS011;68526;44.600;26.032;2024-03-23T02:07:29;20.98;;;13.50;;
79122;SDS011;68526;44.600;26.032;2024-03-23T02:07:45;21.10;;;13.35;;
79122;SDS011;68526;44.600;26.032;2024-03-23T02:08:01;21.50;;;13.15;;
79122;SDS011;68526;44.600;26.032;2024-03-23T02:08:19;20.27;;;13.27;;
79122;SDS011;68526;44.600;26.032;2024-03-23T02:08:36;19.40;;;13.43;;
79122;SDS011;68526;44.600;26.032;2024-03-23T02:08:52;19.75;;;13.18;;
79122;SDS011;68526;44.600;26.032;2024-03-23T02:09:09;19.85;;;12.77;;
79122;SDS011;68526;44.600;26.032;2024-03-23T02:09:25;20.88;;;13.10;;
79122;SDS011;68526;44.600;26.032;2024-03-23T02:09:42;20.70;;;13.25;;
79122;SDS011;68526;44.600;26.032;2024-03-23T02:09:59;21.52;;;13.40;;
79122;SDS011;68526;44.600;26.032;2024-03-23T02:10:16;22.23;;;13.63;;
79122;SDS011;68526;44.600;26.032;2024-03-23T02:10:32;21.50;;;13.70;;
79122;SDS011;68526;44.600;26.032;2024-03-23T02:10:48;21.73;;;13.43;;
79122;SDS011;68526;44.600;26.032;2024-03-23T02:11:04;22.08;;;13.50;;
79122;SDS011;68526;44.600;26.032;2024-03-23T02:11:20;20.77;;;13.45;;
79122;SDS011;68526;44.600;26.032;2024-03-23T02:11:37;20.73;;;13.05;;
79122;SDS011;68526;44.600;26.032;2024-03-23T02:11:53;19.70;;;13.38;;
79122;SDS011;68526;44.600;26.032;2024-03-23T02:12:10;19.48;;;13.27;;
79122;SDS011;68526;44.600;26.032;2024-03-23T02:12:26;20.30;;;12.95;;
79122;SDS011;68526;44.600;26.032;2024-03-23T02:12:42;20.10;;;12.70;;
79122;SDS011;68526;44.600;26.032;2024-03-23T02:12:58;19.20;;;13.00;;
79122;SDS011;68526;44.600;26.032;2024-03-23T02:13:15;20.17;;;12.98;;
79122;SDS011;68526;44.600;26.032;2024-03-23T02:13:33;19.83;;;13.02;;
79122;SDS011;68526;44.600;26.032;2024-03-23T02:13:49;19.67;;;13.15;;
79122;SDS011;68526;44.600;26.032;2024-03-23T02:14:05;20.98;;;13.25;;
79122;SDS011;68526;44.600;26.032;2024-03-23T02:14:23;21.20;;;13.57;;
79122;SDS011;68526;44.600;26.032;2024-03-23T02:14:39;19.85;;;12.90;;
79122;SDS011;68526;44.600;26.032;2024-03-23T02:14:55;20.75;;;13.00;;
79122;SDS011;68526;44.600;26.032;2024-03-23T02:15:11;22.05;;;13.43;;
79122;SDS011;68526;44.600;26.032;2024-03-23T02:15:27;22.27;;;13.50;;
79122;SDS011;68526;44.600;26.032;2024-03-23T02:15:43;21.13;;;13.18;;
79122;SDS011;68526;44.600;26.032;2024-03-23T02:15:59;20.50;;;13.23;;
79122;SDS011;68526;44.600;26.032;2024-03-23T02:16:16;22.55;;;13.48;;
79122;SDS011;68526;44.600;26.032;2024-03-23T02:16:32;21.58;;;13.27;;
79122;SDS011;68526;44.600;26.032;2024-03-23T02:16:49;20.75;;;13.55;;
79122;SDS011;68526;44.600;26.032;2024-03-23T02:17:05;20.17;;;13.15;;
79122;SDS011;68526;44.600;26.032;2024-03-23T02:17:21;20.35;;;12.70;;
79122;SDS011;68526;44.600;26.032;2024-03-23T02:17:37;20.50;;;12.68;;
79122;SDS011;68526;44.600;26.032;2024-03-23T02:17:53;20.20;;;12.93;;
79122;SDS011;68526;44.600;26.032;2024-03-23T02:18:09;20.30;;;13.43;;
79122;SDS011;68526;44.600;26.032;2024-03-23T02:18:25;19.55;;;13.30;;
79122;SDS011;68526;44.600;26.032;2024-03-23T02:18:41;20.13;;;12.77;;
79122;SDS011;68526;44.600;26.032;2024-03-23T02:18:57;20.95;;;12.85;;
79122;SDS011;68526;44.600;26.032;2024-03-23T02:19:13;19.70;;;12.80;;
79122;SDS011;68526;44.600;26.032;2024-03-23T02:19:29;19.10;;;12.95;;
79122;SDS011;68526;44.600;26.032;2024-03-23T02:19:45;19.42;;;12.77;;
79122;SDS011;68526;44.600;26.032;2024-03-23T02:20:03;19.63;;;12.65;;
79122;SDS011;68526;44.600;26.032;2024-03-23T02:20:21;20.70;;;12.43;;
79122;SDS011;68526;44.600;26.032;2024-03-23T02:20:37;21.63;;;12.57;;
79122;SDS011;68526;44.600;26.032;2024-03-23T02:20:53;19.92;;;12.77;;
79122;SDS011;68526;44.600;26.032;2024-03-23T02:21:09;18.25;;;12.45;;
79122;SDS011;68526;44.600;26.032;2024-03-23T02:21:25;20.20;;;12.52;;
79122;SDS011;68526;44.600;26.032;2024-03-23T02:21:42;19.92;;;12.25;;
79122;SDS011;68526;44.600;26.032;2024-03-23T02:21:59;18.77;;;11.90;;
79122;SDS011;68526;44.600;26.032;2024-03-23T02:22:15;19.73;;;12.23;;
79122;SDS011;68526;44.600;26.032;2024-03-23T02:22:35;19.80;;;12.48;;
79122;SDS011;68526;44.600;26.032;2024-03-23T02:22:53;17.80;;;12.13;;
79122;SDS011;68526;44.600;26.032;2024-03-23T02:23:13;18.27;;;12.30;;
79122;SDS011;68526;44.600;26.032;2024-03-23T02:23:29;19.33;;;12.88;;
79122;SDS011;68526;44.600;26.032;2024-03-23T02:23:45;20.43;;;12.97;;
79122;SDS011;68526;44.600;26.032;2024-03-23T02:24:01;20.77;;;13.10;;
79122;SDS011;68526;44.600;26.032;2024-03-23T02:24:17;19.47;;;12.87;;
79122;SDS011;68526;44.600;26.032;2024-03-23T02:24:33;18.90;;;12.32;;
79122;SDS011;68526;44.600;26.032;2024-03-23T02:24:49;18.90;;;12.05;;
79122;SDS011;68526;44.600;26.032;2024-03-23T02:25:05;17.90;;;12.10;;
79122;SDS011;68526;44.600;26.032;2024-03-23T02:25:22;18.27;;;12.35;;
79122;SDS011;68526;44.600;26.032;2024-03-23T02:25:38;18.52;;;12.35;;
79122;SDS011;68526;44.600;26.032;2024-03-23T02:25:54;18.27;;;11.85;;
79122;SDS011;68526;44.600;26.032;2024-03-23T02:26:10;19.58;;;11.68;;
79122;SDS011;68526;44.600;26.032;2024-03-23T02:26:26;20.30;;;11.90;;
79122;SDS011;68526;44.600;26.032;2024-03-23T02:26:42;19.13;;;11.90;;
79122;SDS011;68526;44.600;26.032;2024-03-23T02:26:58;19.20;;;12.27;;
79122;SDS011;68526;44.600;26.032;2024-03-23T02:27:15;19.08;;;12.40;;
79122;SDS011;68526;44.600;26.032;2024-03-23T02:27:31;18.38;;;12.18;;
79122;SDS011;68526;44.600;26.032;2024-03-23T02:27:48;19.08;;;12.20;;
79122;SDS011;68526;44.600;26.032;2024-03-23T02:28:05;18.33;;;11.88;;
79122;SDS011;68526;44.600;26.032;2024-03-23T02:28:21;18.77;;;12.20;;
79122;SDS011;68526;44.600;26.032;2024-03-23T02:28:37;17.83;;;12.23;;